createdAt,value
2022-09-27T00:01:11.350Z,11.50
2022-09-27T00:03:39.549Z,10.70
2022-09-27T00:06:28.936Z,10.30
2022-09-27T00:08:56.650Z,10.20
2022-09-27T00:11:34.726Z,10.20
2022-09-27T00:14:02.517Z,10.30
2022-09-27T00:16:34.546Z,10.70
2022-09-27T00:19:10.266Z,10.60
2022-09-27T00:21:38.194Z,11.00
2022-09-27T00:24:05.651Z,10.20
2022-09-27T00:26:32.896Z,10.20
2022-09-27T00:28:59.856Z,10.20
2022-09-27T00:31:30.166Z,10.80
2022-09-27T00:34:02.490Z,10.20
2022-09-27T00:36:30.890Z,10.40
2022-09-27T00:39:01.135Z,10.30
2022-09-27T00:41:34.956Z,10.20
2022-09-27T00:44:05.835Z,11.00
2022-09-27T00:46:47.739Z,10.50
2022-09-27T00:49:33.738Z,10.20
2022-09-27T00:52:28.470Z,10.20
2022-09-27T00:55:07.549Z,10.20
2022-09-27T00:57:35.451Z,10.20
2022-09-27T01:00:11.073Z,10.40
2022-09-27T01:02:40.575Z,10.10
2022-09-27T01:05:10.538Z,10.10
2022-09-27T01:07:37.488Z,9.90
2022-09-27T01:10:05.562Z,9.90
2022-09-27T01:13:26.287Z,9.90
2022-09-27T01:16:11.065Z,9.80
2022-09-27T01:18:46.335Z,9.70
2022-09-27T01:21:51.106Z,10.30
2022-09-27T01:24:44.929Z,9.80
2022-09-27T01:27:40.991Z,9.70
2022-09-27T01:30:25.811Z,9.70
2022-09-27T01:33:33.552Z,9.60
2022-09-27T01:36:15.810Z,9.60
2022-09-27T01:39:20.037Z,9.50
2022-09-27T01:42:12.481Z,10.50
2022-09-27T01:45:06.068Z,9.50
2022-09-27T01:47:42.482Z,9.50
2022-09-27T01:50:16.566Z,9.40
2022-09-27T01:53:01.994Z,9.90
2022-09-27T01:55:34.162Z,9.40
2022-09-27T01:58:13.018Z,10.00
2022-09-27T02:00:43.268Z,9.70
2022-09-27T02:03:25.847Z,9.30
2022-09-27T02:05:57.424Z,9.30
2022-09-27T02:08:53.350Z,9.80
2022-09-27T02:11:20.313Z,9.30
2022-09-27T02:13:54.442Z,9.30
2022-09-27T02:16:54.318Z,9.30
2022-09-27T02:19:40.048Z,9.20
2022-09-27T02:22:16.711Z,9.40
2022-09-27T02:24:55.430Z,9.50
2022-09-27T02:27:37.044Z,9.10
2022-09-27T02:30:11.933Z,9.10
2022-09-27T02:32:40.420Z,9.10
2022-09-27T02:35:27.974Z,9.80
2022-09-27T02:37:56.138Z,9.10
2022-09-27T02:40:24.879Z,9.20
2022-09-27T02:42:53.027Z,9.20
2022-09-27T02:45:20.668Z,9.20
2022-09-27T02:48:48.470Z,9.20
2022-09-27T02:52:16.886Z,9.20
2022-09-27T02:54:55.780Z,9.20
2022-09-27T02:58:05.613Z,9.20
2022-09-27T03:00:56.857Z,9.20
2022-09-27T03:03:57.521Z,9.30
2022-09-27T03:06:25.527Z,9.20
2022-09-27T03:08:52.935Z,9.30
2022-09-27T03:11:19.866Z,9.30
2022-09-27T03:14:07.304Z,9.30
2022-09-27T03:16:33.947Z,10.40
2022-09-27T03:19:01.175Z,10.20
2022-09-27T03:21:28.134Z,9.80
2022-09-27T03:23:55.153Z,10.80
2022-09-27T03:26:22.082Z,9.60
2022-09-27T03:28:49.115Z,10.00
2022-09-27T03:31:16.175Z,10.40
2022-09-27T03:33:43.135Z,9.40
2022-09-27T03:36:10.156Z,9.20
2022-09-27T03:38:37.027Z,9.70
2022-09-27T03:41:04.874Z,9.50
2022-09-27T03:43:31.760Z,9.10
2022-09-27T03:45:58.943Z,10.10
2022-09-27T03:48:28.158Z,9.10
2022-09-27T03:50:55.382Z,9.30
2022-09-27T03:53:22.277Z,10.80
2022-09-27T03:55:49.233Z,9.10
2022-09-27T03:58:16.284Z,9.60
2022-09-27T04:00:44.830Z,9.20
2022-09-27T04:03:12.112Z,9.20
2022-09-27T04:05:39.061Z,9.80
2022-09-27T04:08:11.039Z,9.50
2022-09-27T04:10:38.286Z,10.20
2022-09-27T04:13:05.811Z,9.30
2022-09-27T04:15:32.755Z,9.20
2022-09-27T04:17:59.700Z,9.20
2022-09-27T04:20:26.579Z,9.20
2022-09-27T04:22:53.468Z,9.50
2022-09-27T04:25:20.366Z,10.80
2022-09-27T04:27:48.285Z,9.20
2022-09-27T04:30:15.988Z,9.70
2022-09-27T04:32:44.767Z,9.20
2022-09-27T04:35:31.624Z,9.50
2022-09-27T04:37:59.889Z,9.90
2022-09-27T04:40:26.978Z,10.00
2022-09-27T04:42:53.913Z,10.80
2022-09-27T04:45:21.366Z,9.60
2022-09-27T04:47:50.167Z,9.40
2022-09-27T04:50:18.578Z,9.90
2022-09-27T04:52:50.590Z,10.70
2022-09-27T04:55:17.820Z,10.50
2022-09-27T04:57:44.711Z,9.40
2022-09-27T05:00:12.266Z,10.00
2022-09-27T05:02:39.304Z,9.40
2022-09-27T05:05:06.881Z,9.60
2022-09-27T05:07:35.380Z,9.50
2022-09-27T05:10:02.222Z,10.00
2022-09-27T05:12:29.134Z,10.30
2022-09-27T05:14:56.086Z,10.00
2022-09-27T05:17:23.621Z,9.60
2022-09-27T05:19:50.815Z,9.50
2022-09-27T05:22:17.861Z,9.60
2022-09-27T05:24:47.128Z,9.90
2022-09-27T05:27:18.484Z,10.80
2022-09-27T05:29:45.786Z,10.60
2022-09-27T05:32:12.887Z,9.70
2022-09-27T05:34:39.903Z,10.80
2022-09-27T05:37:06.776Z,9.70
2022-09-27T05:39:33.719Z,9.70
2022-09-27T05:42:00.640Z,10.90
2022-09-27T05:44:27.558Z,10.50
2022-09-27T05:46:54.517Z,9.90
2022-09-27T05:49:21.409Z,9.80
2022-09-27T05:51:48.460Z,9.80
2022-09-27T05:54:15.479Z,10.20
2022-09-27T05:56:42.422Z,10.70
2022-09-27T05:59:09.371Z,9.90
2022-09-27T06:01:36.369Z,10.40
2022-09-27T06:04:05.605Z,9.80
2022-09-27T06:06:36.458Z,10.10
2022-09-27T06:09:03.610Z,9.90
2022-09-27T06:11:30.529Z,9.90
2022-09-27T06:13:57.984Z,9.90
2022-09-27T06:16:25.007Z,10.20
2022-09-27T06:18:52.283Z,10.10
2022-09-27T06:21:19.219Z,10.00
2022-09-27T06:23:47.326Z,10.50
2022-09-27T06:26:16.754Z,10.80
2022-09-27T06:28:44.462Z,10.50
2022-09-27T06:31:12.228Z,10.70
2022-09-27T06:33:39.223Z,10.50
2022-09-27T06:36:08.225Z,10.30
2022-09-27T06:38:35.451Z,10.10
2022-09-27T06:41:06.596Z,10.20
2022-09-27T06:43:34.214Z,10.70
2022-09-27T06:46:05.900Z,10.60
2022-09-27T06:48:34.150Z,10.50
2022-09-27T06:51:01.226Z,10.30
2022-09-27T06:53:29.920Z,10.30
2022-09-27T06:56:01.669Z,10.90
2022-09-27T06:58:48.072Z,10.40
2022-09-27T07:01:15.501Z,10.70
2022-09-27T07:03:43.357Z,10.40
2022-09-27T07:06:20.430Z,10.50
2022-09-27T07:08:52.186Z,10.50
2022-09-27T07:11:20.557Z,10.60
2022-09-27T07:13:47.529Z,10.60
2022-09-27T07:16:15.103Z,10.80
2022-09-27T07:18:43.071Z,11.20
2022-09-27T07:21:10.461Z,11.00
2022-09-27T07:23:37.334Z,10.90
2022-09-27T07:26:07.392Z,10.90
2022-09-27T07:28:35.107Z,11.00
2022-09-27T07:31:03.754Z,11.00
2022-09-27T07:33:32.263Z,11.20
2022-09-27T07:35:59.377Z,11.10
2022-09-27T07:38:26.559Z,11.10
2022-09-27T07:40:53.775Z,11.20
2022-09-27T07:43:20.823Z,12.10
2022-09-27T07:45:47.895Z,11.20
2022-09-27T07:48:16.619Z,11.30
2022-09-27T07:50:45.743Z,11.10
2022-09-27T07:53:13.938Z,11.10
2022-09-27T07:55:42.622Z,11.20
2022-09-27T07:58:12.056Z,11.10
2022-09-27T08:00:40.837Z,11.20
2022-09-27T08:03:16.525Z,11.20
2022-09-27T08:05:48.295Z,11.20
2022-09-27T08:08:17.354Z,11.30
2022-09-27T08:10:44.509Z,11.30
2022-09-27T08:13:12.176Z,11.40
2022-09-27T08:15:39.143Z,11.40
2022-09-27T08:18:09.353Z,11.50
2022-09-27T08:20:36.376Z,11.50
2022-09-27T08:23:04.303Z,11.60
2022-09-27T08:25:31.736Z,11.60
2022-09-27T08:28:01.609Z,11.60
2022-09-27T08:30:31.339Z,11.70
2022-09-27T08:33:01.183Z,11.60
2022-09-27T08:35:29.336Z,11.70
2022-09-27T08:38:00.964Z,11.70
2022-09-27T08:40:57.051Z,11.60
2022-09-27T08:43:41.119Z,11.60
2022-09-27T08:46:35.875Z,11.60
2022-09-27T08:49:14.799Z,11.70
2022-09-27T08:51:43.242Z,11.70
2022-09-27T08:54:27.092Z,11.70
2022-09-27T08:57:16.555Z,11.70
2022-09-27T09:00:11.582Z,11.80
2022-09-27T09:02:38.723Z,11.80
2022-09-27T09:05:25.078Z,11.80
2022-09-27T09:08:25.854Z,11.80
2022-09-27T09:11:40.984Z,11.90
2022-09-27T09:14:27.341Z,11.90
2022-09-27T09:17:36.833Z,11.90
2022-09-27T09:20:50.687Z,12.00
2022-09-27T09:23:42.976Z,11.90
2022-09-27T09:26:13.732Z,11.90
2022-09-27T09:29:02.660Z,12.00
2022-09-27T09:31:44.158Z,11.90
2022-09-27T09:34:41.016Z,11.90
2022-09-27T09:37:35.586Z,11.90
2022-09-27T09:40:37.399Z,11.90
2022-09-27T09:43:38.422Z,11.90
2022-09-27T09:46:35.165Z,11.80
2022-09-27T09:49:28.969Z,11.90
2022-09-27T09:52:13.573Z,11.90
2022-09-27T09:55:04.468Z,11.90
2022-09-27T09:57:39.198Z,11.90
2022-09-27T10:00:15.118Z,11.90
2022-09-27T10:02:47.478Z,11.90
2022-09-27T10:05:21.265Z,11.90
2022-09-27T10:07:51.061Z,11.90
2022-09-27T10:10:20.635Z,11.90
2022-09-27T10:12:49.075Z,12.00
2022-09-27T10:15:23.207Z,12.00
2022-09-27T10:17:53.831Z,12.10
2022-09-27T10:20:42.168Z,12.00
2022-09-27T10:23:22.194Z,12.20
2022-09-27T10:26:04.838Z,12.10
2022-09-27T10:28:46.020Z,12.20
2022-09-27T10:31:18.240Z,12.20
2022-09-27T10:33:57.463Z,12.30
2022-09-27T10:36:35.069Z,12.40
2022-09-27T10:39:10.143Z,12.30
2022-09-27T10:41:40.586Z,12.30
2022-09-27T10:44:17.104Z,12.40
2022-09-27T10:47:08.926Z,12.40
2022-09-27T10:49:40.143Z,12.30
2022-09-27T10:52:18.124Z,12.40
2022-09-27T10:54:55.011Z,12.30
2022-09-27T10:57:28.637Z,12.30
2022-09-27T11:00:03.404Z,12.30
2022-09-27T11:02:36.371Z,12.30
2022-09-27T11:05:06.498Z,12.30
2022-09-27T11:07:37.482Z,12.20
2022-09-27T11:10:36.291Z,12.20
2022-09-27T11:13:20.613Z,12.20
2022-09-27T11:16:09.293Z,12.30
2022-09-27T11:19:01.501Z,12.20
2022-09-27T11:21:45.781Z,12.20
2022-09-27T11:24:58.687Z,12.20
2022-09-27T11:28:07.512Z,12.20
2022-09-27T11:31:14.368Z,12.40
2022-09-27T11:34:17.241Z,12.20
2022-09-27T11:37:16.079Z,12.20
2022-09-27T11:40:16.136Z,12.20
2022-09-27T11:43:03.953Z,12.20
2022-09-27T11:46:42.119Z,12.20
2022-09-27T11:49:18.410Z,12.20
2022-09-27T11:52:27.019Z,12.20
2022-09-27T11:55:13.504Z,12.20
2022-09-27T11:58:15.957Z,12.20
2022-09-27T12:01:27.086Z,14.40
2022-09-27T12:04:27.560Z,12.20
2022-09-27T12:07:18.851Z,12.30
2022-09-27T12:10:04.396Z,12.20
2022-09-27T12:12:34.886Z,12.70
2022-09-27T12:15:07.356Z,12.20
2022-09-27T12:17:40.628Z,12.20
2022-09-27T12:20:19.531Z,12.20
2022-09-27T12:22:59.882Z,15.00
2022-09-27T12:25:32.268Z,13.20
2022-09-27T12:28:10.688Z,12.30
2022-09-27T12:30:43.165Z,12.40
2022-09-27T12:33:34.956Z,12.50
2022-09-27T12:36:09.647Z,14.40
2022-09-27T12:39:13.277Z,12.70
2022-09-27T12:41:45.882Z,12.70
2022-09-27T12:44:13.845Z,14.80
2022-09-27T12:47:05.262Z,12.80
2022-09-27T12:50:11.892Z,12.80
2022-09-27T12:52:45.386Z,12.90
2022-09-27T12:55:31.329Z,12.80
2022-09-27T12:58:31.336Z,12.90
2022-09-27T13:01:33.207Z,13.00
2022-09-27T13:04:54.619Z,14.60
2022-09-27T13:08:13.874Z,13.00
2022-09-27T13:11:10.563Z,13.00
2022-09-27T13:13:39.777Z,13.00
2022-09-27T13:16:07.486Z,13.00
2022-09-27T13:19:01.659Z,14.10
2022-09-27T13:21:56.819Z,12.90
2022-09-27T13:24:41.946Z,12.80
2022-09-27T13:27:27.612Z,12.90
2022-09-27T13:30:12.899Z,12.80
2022-09-27T13:32:40.887Z,15.10
2022-09-27T13:35:27.164Z,12.80
2022-09-27T13:38:01.847Z,12.70
2022-09-27T13:40:40.911Z,12.70
2022-09-27T13:43:10.786Z,12.70
2022-09-27T13:45:49.088Z,12.70
2022-09-27T13:48:37.689Z,12.60
2022-09-27T13:51:30.461Z,12.60
2022-09-27T13:54:36.139Z,12.60
2022-09-27T13:57:06.516Z,12.60
2022-09-27T13:59:52.570Z,12.50
2022-09-27T14:02:26.004Z,12.60
2022-09-27T14:04:53.393Z,12.50
2022-09-27T14:07:38.817Z,12.40
2022-09-27T14:10:07.336Z,12.40
2022-09-27T14:12:37.730Z,12.40
2022-09-27T14:15:07.991Z,12.40
2022-09-27T14:17:35.156Z,12.40
2022-09-27T14:20:03.266Z,12.40
2022-09-27T14:22:30.184Z,12.30
2022-09-27T14:24:58.150Z,12.30
2022-09-27T14:27:35.365Z,12.30
2022-09-27T14:30:19.163Z,13.20
2022-09-27T14:32:51.859Z,12.20
2022-09-27T14:35:41.248Z,13.40
2022-09-27T14:38:36.666Z,13.20
2022-09-27T14:41:10.685Z,14.20
2022-09-27T14:43:45.861Z,12.20
2022-09-27T14:46:28.739Z,12.20
2022-09-27T14:48:56.276Z,12.30
2022-09-27T14:51:32.610Z,15.20
2022-09-27T14:54:04.086Z,12.30
2022-09-27T14:56:40.327Z,13.80
2022-09-27T14:59:35.120Z,12.40
2022-09-27T15:02:18.039Z,12.40
2022-09-27T15:04:47.397Z,13.40
2022-09-27T15:07:17.000Z,13.90
2022-09-27T15:09:45.627Z,13.90
2022-09-27T15:12:27.671Z,14.80
2022-09-27T15:14:58.145Z,12.40
2022-09-27T15:17:25.434Z,12.40
2022-09-27T15:20:22.227Z,13.40
2022-09-27T15:22:49.150Z,12.40
2022-09-27T15:25:42.332Z,14.70
2022-09-27T15:28:12.200Z,12.40
2022-09-27T15:30:41.890Z,13.70
2022-09-27T15:33:21.679Z,13.40
2022-09-27T15:35:58.195Z,15.00
2022-09-27T15:38:49.065Z,13.30
2022-09-27T15:41:18.689Z,12.40
2022-09-27T15:43:51.570Z,12.40
2022-09-27T15:46:29.149Z,13.30
2022-09-27T15:49:22.958Z,12.30
2022-09-27T15:51:52.852Z,13.30
2022-09-27T15:54:25.697Z,14.80
2022-09-27T15:56:55.972Z,14.90
2022-09-27T15:59:26.785Z,13.50
2022-09-27T16:02:03.071Z,14.60
2022-09-27T16:04:33.820Z,12.10
2022-09-27T16:07:02.390Z,13.90
2022-09-27T16:09:29.510Z,12.00
2022-09-27T16:11:56.454Z,12.00
2022-09-27T16:14:23.383Z,12.00
2022-09-27T16:16:58.702Z,12.10
2022-09-27T16:19:27.016Z,13.00
2022-09-27T16:21:53.933Z,12.00
2022-09-27T16:24:20.933Z,11.90
2022-09-27T16:26:47.831Z,11.80
2022-09-27T16:29:15.806Z,13.90
2022-09-27T16:31:43.036Z,12.50
2022-09-27T16:34:11.502Z,12.70
2022-09-27T16:36:39.108Z,13.80
2022-09-27T16:39:13.293Z,11.70
2022-09-27T16:41:43.644Z,11.70
2022-09-27T16:44:13.790Z,12.90
2022-09-27T16:46:42.467Z,11.60
2022-09-27T16:49:29.894Z,12.50
2022-09-27T16:52:01.184Z,11.70
2022-09-27T16:54:29.329Z,11.70
2022-09-27T16:56:57.886Z,14.20
2022-09-27T16:59:25.174Z,14.30
2022-09-27T17:01:52.867Z,14.10
2022-09-27T17:04:20.313Z,12.30
2022-09-27T17:06:47.146Z,14.00
2022-09-27T17:09:14.028Z,13.40
2022-09-27T17:11:41.252Z,14.40
2022-09-27T17:14:11.609Z,12.40
2022-09-27T17:16:38.566Z,13.70
2022-09-27T17:19:05.470Z,11.40
2022-09-27T17:21:37.103Z,11.40
2022-09-27T17:24:05.675Z,12.70
2022-09-27T17:26:32.860Z,11.30
2022-09-27T17:29:00.889Z,13.80
2022-09-27T17:31:31.444Z,12.90
2022-09-27T17:33:59.910Z,13.80
2022-09-27T17:36:31.091Z,11.20
2022-09-27T17:38:59.458Z,11.20
2022-09-27T17:41:28.228Z,12.00
2022-09-27T17:43:58.790Z,11.20
2022-09-27T17:46:32.227Z,11.20
2022-09-27T17:49:18.503Z,11.20
2022-09-27T17:51:51.446Z,11.10
2022-09-27T17:54:20.968Z,11.10
2022-09-27T17:56:48.568Z,11.10
2022-09-27T17:59:16.904Z,12.20
2022-09-27T18:01:47.575Z,13.20
2022-09-27T18:04:17.994Z,11.10
2022-09-27T18:06:47.017Z,11.00
2022-09-27T18:09:16.758Z,11.20
2022-09-27T18:11:44.845Z,11.00
2022-09-27T18:14:12.310Z,11.00
2022-09-27T18:16:43.008Z,13.50
2022-09-27T18:19:16.694Z,10.90
2022-09-27T18:21:44.409Z,11.00
2022-09-27T18:24:11.612Z,10.90
2022-09-27T18:26:39.754Z,10.90
2022-09-27T18:29:21.517Z,11.70
2022-09-27T18:31:49.392Z,10.90
2022-09-27T18:34:18.423Z,10.90
2022-09-27T18:36:46.021Z,10.90
2022-09-27T18:39:18.148Z,10.90
2022-09-27T18:41:47.682Z,10.90
2022-09-27T18:44:15.533Z,11.90
2022-09-27T18:46:42.564Z,13.60
2022-09-27T18:49:12.326Z,10.80
2022-09-27T18:51:44.688Z,11.20
2022-09-27T18:54:19.835Z,11.90
2022-09-27T18:56:48.856Z,10.80
2022-09-27T18:59:17.185Z,10.80
2022-09-27T19:01:45.923Z,10.80
2022-09-27T19:04:24.079Z,10.80
2022-09-27T19:06:53.587Z,10.80
2022-09-27T19:09:20.795Z,10.80
2022-09-27T19:11:47.885Z,13.10
2022-09-27T19:14:20.851Z,10.80
2022-09-27T19:16:48.466Z,10.80
2022-09-27T19:19:20.319Z,10.80
2022-09-27T19:21:47.962Z,10.80
2022-09-27T19:24:15.796Z,10.90
2022-09-27T19:26:43.468Z,10.80
2022-09-27T19:29:11.759Z,10.80
2022-09-27T19:31:38.804Z,13.00
2022-09-27T19:34:05.846Z,10.90
2022-09-27T19:36:32.707Z,12.00
2022-09-27T19:39:00.267Z,10.80
2022-09-27T19:41:27.468Z,13.70
2022-09-27T19:43:56.260Z,10.80
2022-09-27T19:46:24.694Z,10.70
2022-09-27T19:48:51.871Z,13.50
2022-09-27T19:51:22.418Z,13.10
2022-09-27T19:53:50.769Z,12.00
2022-09-27T19:56:18.936Z,10.70
2022-09-27T19:58:46.172Z,10.70
2022-09-27T20:01:22.813Z,10.80
2022-09-27T20:03:52.412Z,10.70
2022-09-27T20:06:20.570Z,10.70
2022-09-27T20:08:48.139Z,10.70
2022-09-27T20:11:20.829Z,10.70
2022-09-27T20:13:48.906Z,10.70
2022-09-27T20:16:20.087Z,13.70
2022-09-27T20:18:56.355Z,10.90
2022-09-27T20:21:26.598Z,10.70
2022-09-27T20:23:56.091Z,10.70
2022-09-27T20:26:25.462Z,10.70
2022-09-27T20:28:56.914Z,12.50
2022-09-27T20:31:30.265Z,13.30
2022-09-27T20:33:57.412Z,10.70
2022-09-27T20:36:26.604Z,10.70
2022-09-27T20:39:12.014Z,10.70
2022-09-27T20:41:46.723Z,12.10
2022-09-27T20:44:17.392Z,10.70
2022-09-27T20:46:45.737Z,10.70
2022-09-27T20:49:16.554Z,10.60
2022-09-27T20:51:51.069Z,13.20
2022-09-27T20:54:18.394Z,10.60
2022-09-27T20:56:48.282Z,10.40
2022-09-27T20:59:22.939Z,10.50
2022-09-27T21:01:51.902Z,13.30
2022-09-27T21:04:20.163Z,10.50
2022-09-27T21:06:47.145Z,10.50
2022-09-27T21:09:24.089Z,13.10
2022-09-27T21:11:52.242Z,10.50
2022-09-27T21:14:20.188Z,10.50
2022-09-27T21:16:47.182Z,13.30
2022-09-27T21:19:14.279Z,12.30
2022-09-27T21:21:41.319Z,10.50
2022-09-27T21:24:08.479Z,10.50
2022-09-27T21:26:35.471Z,10.50
2022-09-27T21:29:08.398Z,13.00
2022-09-27T21:31:36.295Z,10.40
2022-09-27T21:34:05.102Z,11.20
2022-09-27T21:36:35.579Z,10.40
2022-09-27T21:39:03.620Z,10.40
2022-09-27T21:41:30.574Z,10.40
2022-09-27T21:43:57.571Z,10.30
2022-09-27T21:46:28.771Z,10.40
2022-09-27T21:49:01.958Z,10.30
2022-09-27T21:51:32.887Z,10.30
2022-09-27T21:54:02.127Z,10.30
2022-09-27T21:56:33.323Z,10.30
2022-09-27T21:59:00.482Z,10.30
2022-09-27T22:01:33.141Z,10.30
2022-09-27T22:04:01.943Z,10.30
2022-09-27T22:06:33.164Z,10.30
2022-09-27T22:09:01.436Z,10.30
2022-09-27T22:11:32.073Z,10.90
2022-09-27T22:13:59.629Z,10.30
2022-09-27T22:16:27.949Z,10.30
2022-09-27T22:18:56.764Z,10.30
2022-09-27T22:21:28.251Z,10.30
2022-09-27T22:24:06.513Z,10.30
2022-09-27T22:26:38.475Z,12.70
2022-09-27T22:29:06.723Z,10.60
2022-09-27T22:31:33.965Z,10.30
2022-09-27T22:34:04.788Z,10.30
2022-09-27T22:36:33.358Z,12.30
2022-09-27T22:39:00.529Z,10.30
2022-09-27T22:41:30.428Z,11.10
2022-09-27T22:43:57.984Z,10.20
2022-09-27T22:46:25.009Z,10.20
2022-09-27T22:48:52.285Z,12.70
2022-09-27T22:51:19.275Z,10.10
2022-09-27T22:53:46.171Z,10.10
2022-09-27T22:56:16.876Z,10.10
2022-09-27T22:58:44.307Z,12.10
2022-09-27T23:01:17.147Z,11.40
2022-09-27T23:03:45.716Z,10.10
2022-09-27T23:06:14.511Z,10.00
2022-09-27T23:08:41.514Z,10.00
2022-09-27T23:11:14.743Z,11.70
2022-09-27T23:13:43.570Z,9.90
2022-09-27T23:16:17.654Z,11.60
2022-09-27T23:18:47.653Z,9.80
2022-09-27T23:21:16.972Z,11.70
2022-09-27T23:23:46.001Z,9.90
2022-09-27T23:26:16.307Z,9.90
2022-09-27T23:28:43.671Z,9.90
2022-09-27T23:31:16.740Z,9.90
2022-09-27T23:33:47.447Z,9.90
2022-09-27T23:36:18.892Z,9.90
2022-09-27T23:38:48.482Z,9.90
2022-09-27T23:41:17.217Z,13.00
2022-09-27T23:43:45.140Z,10.80
2022-09-27T23:46:13.020Z,9.70
2022-09-27T23:48:40.578Z,11.80
2022-09-27T23:51:11.390Z,9.70
2022-09-27T23:53:39.618Z,9.70
2022-09-27T23:56:15.793Z,9.70
2022-09-27T23:58:45.669Z,9.70
